createdAt,value
2016-10-26T00:00:27.606Z,86.52
2016-10-26T00:01:40.099Z,86.72
2016-10-26T00:02:52.068Z,86.43
2016-10-26T00:04:05.106Z,86.43
2016-10-26T00:05:18.075Z,86.62
2016-10-26T00:06:31.032Z,86.72
2016-10-26T00:07:43.647Z,86.72
2016-10-26T00:08:57.096Z,86.72
2016-10-26T00:10:10.090Z,86.72
2016-10-26T00:11:23.026Z,86.82
2016-10-26T00:12:35.453Z,87.01
2016-10-26T00:13:47.361Z,87.1
2016-10-26T00:15:00.380Z,87.2
2016-10-26T00:16:12.789Z,86.33
2016-10-26T00:17:24.179Z,86.62
2016-10-26T00:18:37.833Z,86.62
2016-10-26T00:19:51.329Z,86.62
2016-10-26T00:21:04.344Z,86.52
2016-10-26T00:22:16.895Z,86.62
2016-10-26T00:23:29.365Z,87.01
2016-10-26T00:24:42.489Z,87.2
2016-10-26T00:25:54.432Z,86.91
2016-10-26T00:27:07.366Z,86.82
2016-10-26T00:28:18.941Z,87.1
2016-10-26T00:29:31.535Z,87.1
2016-10-26T00:30:45.022Z,87.1
2016-10-26T00:31:58.534Z,86.33
2016-10-26T00:33:12.091Z,86.72
2016-10-26T00:34:25.547Z,86.33
2016-10-26T00:35:38.671Z,86.43
2016-10-26T00:36:51.145Z,87.1
2016-10-26T00:38:04.103Z,86.33
2016-10-26T00:39:16.584Z,86.91
2016-10-26T00:40:30.132Z,87.2
2016-10-26T00:41:42.578Z,86.91
2016-10-26T00:42:55.529Z,86.91
2016-10-26T00:44:08.973Z,87.01
2016-10-26T00:45:22.488Z,87.1
2016-10-26T00:46:35.614Z,86.82
2016-10-26T00:47:49.078Z,87.01
2016-10-26T00:49:02.008Z,86.91
2016-10-26T00:50:15.539Z,87.3
2016-10-26T00:51:27.564Z,87.49
2016-10-26T00:52:39.978Z,87.4
2016-10-26T00:53:52.975Z,87.1
2016-10-26T00:55:04.912Z,87.49
2016-10-26T00:56:18.314Z,87.59
2016-10-26T00:57:30.836Z,87.59
2016-10-26T00:58:43.802Z,87.49
2016-10-26T00:59:57.283Z,87.68
2016-10-26T01:01:09.711Z,87.78
2016-10-26T01:02:23.377Z,87.97
2016-10-26T01:03:36.831Z,87.97
2016-10-26T01:04:49.850Z,87.88
2016-10-26T01:06:02.277Z,87.97
2016-10-26T01:07:15.686Z,87.97
2016-10-26T01:08:29.275Z,87.88
2016-10-26T01:09:42.299Z,87.88
2016-10-26T01:10:55.303Z,87.88
2016-10-26T01:12:08.328Z,87.88
2016-10-26T01:13:20.905Z,87.59
2016-10-26T01:14:34.537Z,87.59
2016-10-26T01:15:47.507Z,87.88
2016-10-26T01:17:01.162Z,87.97
2016-10-26T01:18:14.114Z,88.07
2016-10-26T01:19:27.292Z,88.07
2016-10-26T01:20:39.212Z,87.88
2016-10-26T01:21:52.703Z,88.36
2016-10-26T01:23:05.243Z,88.36
2016-10-26T01:24:18.431Z,87.97
2016-10-26T01:25:29.885Z,88.17
2016-10-26T01:26:43.489Z,88.07
2016-10-26T01:27:55.971Z,87.97
2016-10-26T01:29:09.050Z,88.26
2016-10-26T01:30:22.024Z,88.12
2016-10-26T01:31:35.040Z,87.88
2016-10-26T01:32:48.500Z,88.07
2016-10-26T01:34:00.966Z,88.07
2016-10-26T01:35:13.588Z,88.45
2016-10-26T01:36:26.609Z,88.75
2016-10-26T01:37:38.554Z,88.65
2016-10-26T01:38:50.496Z,88.31
2016-10-26T01:40:03.524Z,88.31
2016-10-26T01:41:15.629Z,88.75
2016-10-26T01:42:28.167Z,88.84
2016-10-26T01:43:40.650Z,88.65
2016-10-26T01:44:53.679Z,88.79
2016-10-26T01:46:06.304Z,88.6
2016-10-26T01:47:18.807Z,88.6
2016-10-26T01:48:30.193Z,89.09
2016-10-26T01:49:43.224Z,88.7
2016-10-26T01:50:56.213Z,88.79
2016-10-26T01:52:07.911Z,88.7
2016-10-26T01:53:21.002Z,88.99
2016-10-26T01:54:34.297Z,88.7
2016-10-26T01:55:48.134Z,88.79
2016-10-26T01:57:01.290Z,88.79
2016-10-26T01:58:14.337Z,88.51
2016-10-26T01:59:27.935Z,89.28
2016-10-26T02:00:40.458Z,89.57
2016-10-26T02:01:52.961Z,89.37
2016-10-26T02:03:04.395Z,89.18
2016-10-26T02:04:17.410Z,89.28
2016-10-26T02:05:29.973Z,89.57
2016-10-26T02:06:43.038Z,89.37
2016-10-26T02:07:56.217Z,89.18
2016-10-26T02:09:08.635Z,89.18
2016-10-26T02:10:22.170Z,89.18
2016-10-26T02:11:34.148Z,89.47
2016-10-26T02:12:46.637Z,89.09
2016-10-26T02:13:59.680Z,89.18
2016-10-26T02:15:12.254Z,89.18
2016-10-26T02:16:23.652Z,88.99
2016-10-26T02:17:36.132Z,89.09
2016-10-26T02:18:48.701Z,90.24
2016-10-26T02:20:01.791Z,89.18
2016-10-26T02:21:13.782Z,89.09
2016-10-26T02:22:25.754Z,89.76
2016-10-26T02:23:38.187Z,89.37
2016-10-26T02:24:51.358Z,89.28
2016-10-26T02:26:04.367Z,89.18
2016-10-26T02:27:16.834Z,89.28
2016-10-26T02:28:29.901Z,90.24
2016-10-26T02:29:43.035Z,89.86
2016-10-26T02:30:56.023Z,89.86
2016-10-26T02:32:09.063Z,90.05
2016-10-26T02:33:22.008Z,89.86
2016-10-26T02:34:35.021Z,89.86
2016-10-26T02:35:47.470Z,89.86
2016-10-26T02:37:01.001Z,89.86
2016-10-26T02:38:13.510Z,89.57
2016-10-26T02:39:27.055Z,89.86
2016-10-26T02:40:40.730Z,89.86
2016-10-26T02:41:53.230Z,89.95
2016-10-26T02:43:06.246Z,89.76
2016-10-26T02:44:19.812Z,89.76
2016-10-26T02:45:32.294Z,89.86
2016-10-26T02:46:45.933Z,89.95
2016-10-26T02:47:59.455Z,89.86
2016-10-26T02:49:11.912Z,89.76
2016-10-26T02:50:24.463Z,89.95
2016-10-26T02:51:37.073Z,89.76
2016-10-26T02:52:50.066Z,89.86
2016-10-26T02:54:03.620Z,89.86
2016-10-26T02:55:16.625Z,89.95
2016-10-26T02:56:29.658Z,89.86
2016-10-26T02:57:42.640Z,90.05
2016-10-26T02:58:55.139Z,88.99
2016-10-26T03:00:08.839Z,89.18
2016-10-26T03:01:20.779Z,89.28
2016-10-26T03:02:33.889Z,89.47
2016-10-26T03:03:46.461Z,88.89
2016-10-26T03:04:59.559Z,88.89
2016-10-26T03:06:12.552Z,89.09
2016-10-26T03:07:25.021Z,89.18
2016-10-26T03:08:37.525Z,89.57
2016-10-26T03:09:51.138Z,89.37
2016-10-26T03:11:03.557Z,89.37
2016-10-26T03:12:16.556Z,89.37
2016-10-26T03:13:30.189Z,89.47
2016-10-26T03:14:42.165Z,89.18
2016-10-26T03:15:55.144Z,88.7
2016-10-26T03:17:07.652Z,88.7
2016-10-26T03:18:19.597Z,88.79
2016-10-26T03:19:33.181Z,88.99
2016-10-26T03:20:46.747Z,89.09
2016-10-26T03:22:00.244Z,88.7
2016-10-26T03:23:12.168Z,89.09
2016-10-26T03:24:24.711Z,88.6
2016-10-26T03:25:36.138Z,88.7
2016-10-26T03:26:49.146Z,88.79
2016-10-26T03:28:01.625Z,88.99
2016-10-26T03:29:14.635Z,88.7
2016-10-26T03:30:27.234Z,88.6
2016-10-26T03:31:40.240Z,88.89
2016-10-26T03:32:52.755Z,89.09
2016-10-26T03:34:05.759Z,88.79
2016-10-26T03:35:18.853Z,88.89
2016-10-26T03:36:32.367Z,88.79
2016-10-26T03:37:45.334Z,88.79
2016-10-26T03:38:58.293Z,89.09
2016-10-26T03:40:11.811Z,88.99
2016-10-26T03:41:24.963Z,88.7
2016-10-26T03:42:38.546Z,88.7
2016-10-26T03:43:50.487Z,88.7
2016-10-26T03:45:02.472Z,88.6
2016-10-26T03:46:14.534Z,88.7
2016-10-26T03:47:27.016Z,88.6
2016-10-26T03:48:40.641Z,88.7
2016-10-26T03:49:53.265Z,88.6
2016-10-26T03:51:06.270Z,88.7
2016-10-26T03:52:19.446Z,88.41
2016-10-26T03:53:32.463Z,88.12
2016-10-26T03:54:46.002Z,88.31
2016-10-26T03:55:59.634Z,88.31
2016-10-26T03:57:12.319Z,88.6
2016-10-26T03:58:24.807Z,88.7
2016-10-26T03:59:37.289Z,88.51
2016-10-26T04:00:49.825Z,88.7
2016-10-26T04:02:02.835Z,88.7
2016-10-26T04:03:15.963Z,88.41
2016-10-26T04:04:28.464Z,88.51
2016-10-26T04:05:41.479Z,88.51
2016-10-26T04:06:55.013Z,88.7
2016-10-26T04:08:07.653Z,88.22
2016-10-26T04:09:21.193Z,88.12
2016-10-26T04:10:35.013Z,88.12
2016-10-26T04:11:47.196Z,88.22
2016-10-26T04:13:00.386Z,88.12
2016-10-26T04:14:13.498Z,88.02
2016-10-26T04:15:26.086Z,87.83
2016-10-26T04:16:38.696Z,88.02
2016-10-26T04:17:51.773Z,87.93
2016-10-26T04:19:05.445Z,88.02
2016-10-26T04:20:18.465Z,87.93
2016-10-26T04:21:31.537Z,88.12
2016-10-26T04:22:45.077Z,88.12
2016-10-26T04:23:57.009Z,88.02
2016-10-26T04:25:10.058Z,88.02
2016-10-26T04:26:22.547Z,88.12
2016-10-26T04:27:35.587Z,88.02
2016-10-26T04:28:48.631Z,87.93
2016-10-26T04:30:01.281Z,87.83
2016-10-26T04:31:14.972Z,87.83
2016-10-26T04:32:27.436Z,87.93
2016-10-26T04:33:40.395Z,87.74
2016-10-26T04:34:53.491Z,87.93
2016-10-26T04:36:06.023Z,87.83
2016-10-26T04:37:18.998Z,87.93
2016-10-26T04:38:31.986Z,87.83
2016-10-26T04:39:45.379Z,87.93
2016-10-26T04:40:58.005Z,87.74
2016-10-26T04:42:11.715Z,87.54
2016-10-26T04:43:24.187Z,87.64
2016-10-26T04:44:36.734Z,87.83
2016-10-26T04:45:49.243Z,87.93
2016-10-26T04:47:01.290Z,87.74
2016-10-26T04:48:13.300Z,87.83
2016-10-26T04:49:25.302Z,87.45
2016-10-26T04:50:37.311Z,87.83
2016-10-26T04:51:50.503Z,87.74
2016-10-26T04:53:02.986Z,87.74
2016-10-26T04:54:16.531Z,87.74
2016-10-26T04:55:29.597Z,87.64
2016-10-26T04:56:42.678Z,87.54
2016-10-26T04:57:55.759Z,87.45
2016-10-26T04:59:08.799Z,87.64
2016-10-26T05:00:21.238Z,87.74
2016-10-26T05:01:35.120Z,87.54
2016-10-26T05:02:48.786Z,87.68
2016-10-26T05:04:01.753Z,87.59
2016-10-26T05:05:14.796Z,87.54
2016-10-26T05:06:27.955Z,87.64
2016-10-26T05:07:41.173Z,87.64
2016-10-26T05:08:54.492Z,87.35
2016-10-26T05:10:07.475Z,87.64
2016-10-26T05:11:20.490Z,87.64
2016-10-26T05:12:32.958Z,87.45
2016-10-26T05:13:45.076Z,87.45
2016-10-26T05:14:58.606Z,87.54
2016-10-26T05:16:12.106Z,87.54
2016-10-26T05:17:24.233Z,87.54
2016-10-26T05:18:37.283Z,87.64
2016-10-26T05:19:50.380Z,87.54
2016-10-26T05:21:03.489Z,87.45
2016-10-26T05:22:15.473Z,87.54
2016-10-26T05:23:29.179Z,87.64
2016-10-26T05:24:42.540Z,87.83
2016-10-26T05:25:55.049Z,87.98
2016-10-26T05:27:08.625Z,87.93
2016-10-26T05:28:20.083Z,88.02
2016-10-26T05:29:32.074Z,88.31
2016-10-26T05:30:45.245Z,87.88
2016-10-26T05:31:57.836Z,87.98
2016-10-26T05:33:10.944Z,87.98
2016-10-26T05:34:23.458Z,87.88
2016-10-26T05:35:36.128Z,88.08
2016-10-26T05:36:49.857Z,88.27
2016-10-26T05:38:02.893Z,88.37
2016-10-26T05:39:16.475Z,88.27
2016-10-26T05:40:29.659Z,88.85
2016-10-26T05:41:42.440Z,88.56
2016-10-26T05:42:55.988Z,88.56
2016-10-26T05:44:08.998Z,89.04
2016-10-26T05:45:21.516Z,89.14
2016-10-26T05:46:34.225Z,89.23
2016-10-26T05:47:47.182Z,89
2016-10-26T05:48:59.624Z,88.9
2016-10-26T05:50:12.750Z,89.09
2016-10-26T05:51:24.756Z,89.19
2016-10-26T05:52:37.255Z,89.39
2016-10-26T05:53:49.858Z,89.77
2016-10-26T05:55:02.942Z,89.77
2016-10-26T05:56:14.872Z,89.77
2016-10-26T05:57:28.509Z,89.58
2016-10-26T05:58:41.514Z,89.77
2016-10-26T05:59:54.511Z,89.77
2016-10-26T06:01:06.471Z,90.06
2016-10-26T06:02:19.982Z,89.96
2016-10-26T06:03:33.485Z,89.96
2016-10-26T06:04:47.097Z,90.16
2016-10-26T06:06:00.033Z,90.25
2016-10-26T06:07:12.567Z,89.86
2016-10-26T06:08:25.824Z,90.16
2016-10-26T06:09:38.828Z,89.67
2016-10-26T06:10:51.899Z,89.96
2016-10-26T06:12:05.007Z,90.34
2016-10-26T06:13:18.123Z,90.44
2016-10-26T06:14:31.345Z,89.96
2016-10-26T06:15:44.870Z,90.25
2016-10-26T06:16:58.490Z,90.44
2016-10-26T06:18:11.512Z,90.44
2016-10-26T06:19:25.144Z,90.16
2016-10-26T06:20:38.195Z,90.44
2016-10-26T06:21:51.774Z,90.44
2016-10-26T06:23:04.821Z,90.83
2016-10-26T06:24:17.741Z,90.73
2016-10-26T06:25:30.970Z,90.64
2016-10-26T06:26:43.982Z,90.83
2016-10-26T06:27:57.025Z,90.83
2016-10-26T06:29:10.494Z,90.73
2016-10-26T06:30:22.162Z,90.73
2016-10-26T06:31:34.653Z,90.44
2016-10-26T06:32:47.701Z,90.54
2016-10-26T06:34:00.763Z,90.54
2016-10-26T06:35:14.365Z,90.64
2016-10-26T06:36:26.816Z,90.83
2016-10-26T06:37:39.865Z,90.73
2016-10-26T06:38:51.796Z,90.73
2016-10-26T06:40:04.352Z,90.73
2016-10-26T06:41:18.073Z,90.16
2016-10-26T06:42:30.547Z,90.54
2016-10-26T06:43:43.544Z,90.25
2016-10-26T06:44:55.982Z,90.25
2016-10-26T06:46:09.491Z,90.34
2016-10-26T06:47:23.012Z,90.34
2016-10-26T06:48:36.030Z,90.54
2016-10-26T06:49:49.537Z,90.44
2016-10-26T06:51:02.051Z,89.96
2016-10-26T06:52:15.330Z,89.58
2016-10-26T06:53:28.945Z,89.96
2016-10-26T06:54:41.946Z,89.96
2016-10-26T06:55:53.868Z,89.96
2016-10-26T06:57:06.807Z,89.77
2016-10-26T06:58:33.164Z,90.16
2016-10-26T06:59:45.599Z,90.16
2016-10-26T07:00:58.588Z,89.48
2016-10-26T07:02:11.580Z,89.39
2016-10-26T07:03:24.234Z,89.58
2016-10-26T07:04:37.237Z,89.77
2016-10-26T07:05:49.161Z,89.62
2016-10-26T07:07:02.212Z,89.62
2016-10-26T07:08:15.865Z,89.58
2016-10-26T07:09:28.338Z,89.67
2016-10-26T07:10:40.378Z,89.77
2016-10-26T07:11:52.887Z,90
2016-10-26T07:13:06.096Z,89.91
2016-10-26T07:14:18.637Z,89.81
2016-10-26T07:15:31.137Z,89.14
2016-10-26T07:16:44.189Z,89.33
2016-10-26T07:17:56.736Z,89.29
2016-10-26T07:19:09.981Z,89.43
2016-10-26T07:20:22.957Z,89.33
2016-10-26T07:21:35.899Z,89.14
2016-10-26T07:22:48.836Z,89.23
2016-10-26T07:24:01.878Z,89.09
2016-10-26T07:25:13.768Z,89.04
2016-10-26T07:26:26.741Z,88.95
2016-10-26T07:27:38.741Z,89.14
2016-10-26T07:28:52.303Z,89.04
2016-10-26T07:30:05.466Z,89.23
2016-10-26T07:31:18.432Z,88.95
2016-10-26T07:32:31.931Z,88.85
2016-10-26T07:33:45.428Z,89.14
2016-10-26T07:34:56.861Z,89.14
2016-10-26T07:36:09.907Z,89.14
2016-10-26T07:37:22.879Z,89.04
2016-10-26T07:38:34.834Z,89.53
2016-10-26T07:39:46.766Z,89.14
2016-10-26T07:41:00.429Z,89.33
2016-10-26T07:42:13.421Z,88.85
2016-10-26T07:43:27.020Z,88.85
2016-10-26T07:44:40.025Z,88.65
2016-10-26T07:45:53.065Z,88.75
2016-10-26T07:47:06.669Z,88.85
2016-10-26T07:48:20.230Z,88.65
2016-10-26T07:49:33.274Z,88.85
2016-10-26T07:50:46.776Z,89.04
2016-10-26T07:52:00.422Z,88.65
2016-10-26T07:53:12.924Z,88.56
2016-10-26T07:54:24.818Z,88.56
2016-10-26T07:55:37.770Z,88.46
2016-10-26T07:56:50.235Z,88.56
2016-10-26T07:58:03.851Z,88.51
2016-10-26T07:59:16.398Z,88.51
2016-10-26T08:00:29.457Z,88.42
2016-10-26T08:01:41.948Z,88.32
2016-10-26T08:02:55.124Z,88.04
2016-10-26T08:04:08.154Z,88.51
2016-10-26T08:05:20.127Z,88.61
2016-10-26T08:06:32.617Z,88.61
2016-10-26T08:07:45.578Z,88.23
2016-10-26T08:08:58.182Z,88.23
2016-10-26T08:10:10.681Z,88.23
2016-10-26T08:11:23.620Z,88.42
2016-10-26T08:12:36.098Z,88.51
2016-10-26T08:13:49.206Z,88.51
2016-10-26T08:15:02.376Z,88.42
2016-10-26T08:16:15.986Z,88.51
2016-10-26T08:17:29.062Z,88.51
2016-10-26T08:18:41.109Z,88.23
2016-10-26T08:19:54.910Z,88.23
2016-10-26T08:21:08.483Z,88.61
2016-10-26T08:22:21.449Z,88.51
2016-10-26T08:23:34.989Z,88.42
2016-10-26T08:24:48.225Z,88.51
2016-10-26T08:26:00.699Z,88.42
2016-10-26T08:27:14.267Z,88.32
2016-10-26T08:28:27.344Z,88.04
2016-10-26T08:29:39.817Z,88.32
2016-10-26T08:30:52.279Z,88.23
2016-10-26T08:32:04.838Z,88.04
2016-10-26T08:33:18.439Z,88.61
2016-10-26T08:34:30.937Z,88.56
2016-10-26T08:35:43.525Z,88.46
2016-10-26T08:36:57.049Z,88.08
2016-10-26T08:38:10.570Z,88.37
2016-10-26T08:39:23.505Z,87.94
2016-10-26T08:40:37.047Z,87.88
2016-10-26T08:41:50.085Z,88.08
2016-10-26T08:43:02.089Z,88.37
2016-10-26T08:44:15.107Z,88.08
2016-10-26T08:45:27.036Z,88.08
2016-10-26T08:46:38.559Z,87.88
2016-10-26T08:47:51.573Z,87.79
2016-10-26T08:49:04.142Z,87.5
2016-10-26T08:50:17.180Z,87.79
2016-10-26T08:51:30.786Z,87.7
2016-10-26T08:52:42.763Z,87.21
2016-10-26T08:53:55.858Z,87.5
2016-10-26T08:55:08.956Z,87.4
2016-10-26T08:56:21.666Z,87.4
2016-10-26T08:57:34.274Z,87.21
2016-10-26T08:58:47.801Z,87.3
2016-10-26T09:00:00.784Z,87.12
2016-10-26T09:01:14.288Z,87.3
2016-10-26T09:02:27.346Z,86.73
2016-10-26T09:03:39.912Z,86.73
2016-10-26T09:04:52.542Z,87.4
2016-10-26T09:06:05.082Z,86.73
2016-10-26T09:07:18.107Z,87.06
2016-10-26T09:08:31.882Z,86.63
2016-10-26T09:09:45.746Z,86.1
2016-10-26T09:10:59.927Z,86.44
2016-10-26T09:12:14.084Z,86.68
2016-10-26T09:13:26.840Z,86.39
2016-10-26T09:14:40.165Z,85.86
2016-10-26T09:15:53.279Z,86.19
2016-10-26T09:17:06.948Z,86.48
2016-10-26T09:18:19.005Z,86
2016-10-26T09:19:32.992Z,85.71
2016-10-26T09:20:45.528Z,85.71
2016-10-26T09:21:59.134Z,85.42
2016-10-26T09:23:12.269Z,85.52
2016-10-26T09:24:24.810Z,85.71
2016-10-26T09:25:37.283Z,85.13
2016-10-26T09:26:50.293Z,85.23
2016-10-26T09:28:02.750Z,85.33
2016-10-26T09:29:16.325Z,85.13
2016-10-26T09:30:28.975Z,85.13
2016-10-26T09:31:42.121Z,84.84
2016-10-26T09:32:55.247Z,85.13
2016-10-26T09:34:08.856Z,85.03
2016-10-26T09:35:22.427Z,85.33
2016-10-26T09:36:35.552Z,85.08
2016-10-26T09:37:49.128Z,84.89
2016-10-26T09:39:01.686Z,84.89
2016-10-26T09:40:15.272Z,84.94
2016-10-26T09:41:28.953Z,84.98
2016-10-26T09:42:41.919Z,84.69
2016-10-26T09:43:54.364Z,84.41
2016-10-26T09:45:07.548Z,84.79
2016-10-26T09:46:20.605Z,84.69
2016-10-26T09:47:33.719Z,84.21
2016-10-26T09:48:46.799Z,84.5
2016-10-26T09:49:59.823Z,83.83
2016-10-26T09:51:12.332Z,83.73
2016-10-26T09:52:25.541Z,83.34
2016-10-26T09:53:38.552Z,83.44
2016-10-26T09:54:51.258Z,83.63
2016-10-26T09:56:04.629Z,83.53
2016-10-26T09:57:17.944Z,83.53
2016-10-26T09:58:30.723Z,83.44
2016-10-26T09:59:43.989Z,83.53
2016-10-26T10:00:57.050Z,83.44
2016-10-26T10:02:07.947Z,83.05
2016-10-26T10:03:20.525Z,82.67
2016-10-26T10:04:33.027Z,82.71
2016-10-26T10:05:46.328Z,82.71
2016-10-26T10:06:59.553Z,82.71
2016-10-26T10:08:12.585Z,82.32
2016-10-26T10:09:25.739Z,82.51
2016-10-26T10:10:38.765Z,82.32
2016-10-26T10:11:51.227Z,82.32
2016-10-26T10:13:03.796Z,82.23
2016-10-26T10:14:16.401Z,81.84
2016-10-26T10:15:29.422Z,82.13
2016-10-26T10:16:41.370Z,81.93
2016-10-26T10:17:53.962Z,81.84
2016-10-26T10:19:07.989Z,81.74
2016-10-26T10:20:20.437Z,81.74
2016-10-26T10:21:32.867Z,81.55
2016-10-26T10:22:46.269Z,80.87
2016-10-26T10:23:59.767Z,81.3
2016-10-26T10:25:13.076Z,80.82
2016-10-26T10:26:26.952Z,80.82
2016-10-26T10:27:39.677Z,80.43
2016-10-26T10:28:53.107Z,79.85
2016-10-26T10:30:06.135Z,80.05
2016-10-26T10:31:19.766Z,79.31
2016-10-26T10:32:32.292Z,79.41
2016-10-26T10:33:45.260Z,79.12
2016-10-26T10:34:57.233Z,78.34
2016-10-26T10:36:09.844Z,78.83
2016-10-26T10:37:22.910Z,78.34
2016-10-26T10:38:35.839Z,77.96
2016-10-26T10:39:48.938Z,77.96
2016-10-26T10:41:00.914Z,77.96
2016-10-26T10:42:13.514Z,77.51
2016-10-26T10:43:26.065Z,76.84
2016-10-26T10:44:38.179Z,77.13
2016-10-26T10:45:51.033Z,76.35
2016-10-26T10:47:03.190Z,76.2
2016-10-26T10:48:16.239Z,75.91
2016-10-26T10:49:28.814Z,75.23
2016-10-26T10:50:40.822Z,75.62
2016-10-26T10:51:54.865Z,75.62
2016-10-26T10:53:07.563Z,75.62
2016-10-26T10:54:20.571Z,75.13
2016-10-26T10:55:33.285Z,75.37
2016-10-26T10:56:45.996Z,74.4
2016-10-26T10:57:58.613Z,74.11
2016-10-26T10:59:12.679Z,74.05
2016-10-26T11:00:26.129Z,73.37
2016-10-26T11:01:38.077Z,73.18
2016-10-26T11:02:50.573Z,72.69
2016-10-26T11:04:03.188Z,71.92
2016-10-26T11:05:15.679Z,71.72
2016-10-26T11:06:27.741Z,72.21
2016-10-26T11:07:39.824Z,71.92
2016-10-26T11:08:53.112Z,71.72
2016-10-26T11:10:06.622Z,71.28
2016-10-26T11:11:19.382Z,71.08
2016-10-26T11:12:33.090Z,71.37
2016-10-26T11:13:46.105Z,70.7
2016-10-26T11:14:58.549Z,70.92
2016-10-26T11:16:11.660Z,69.76
2016-10-26T11:17:24.246Z,69.7
2016-10-26T11:18:37.714Z,69.5
2016-10-26T11:19:50.313Z,69.21
2016-10-26T11:21:02.958Z,68.82
2016-10-26T11:22:15.010Z,69.12
2016-10-26T11:23:26.412Z,68.82
2016-10-26T11:24:38.911Z,68.82
2016-10-26T11:25:52.019Z,69.21
2016-10-26T11:27:04.828Z,68.92
2016-10-26T11:28:17.283Z,68.63
2016-10-26T11:29:29.253Z,68.24
2016-10-26T11:30:42.359Z,67.95
2016-10-26T11:31:54.361Z,67.66
2016-10-26T11:33:07.213Z,67.47
2016-10-26T11:34:20.222Z,66.82
2016-10-26T11:35:33.855Z,66.82
2016-10-26T11:36:46.893Z,66.72
2016-10-26T11:37:59.631Z,66.72
2016-10-26T11:39:13.153Z,66.72
2016-10-26T11:40:26.748Z,66.63
2016-10-26T11:41:39.397Z,66.72
2016-10-26T11:42:52.925Z,66.82
2016-10-26T11:44:05.410Z,67.11
2016-10-26T11:45:18.396Z,66.79
2016-10-26T11:46:30.907Z,66.69
2016-10-26T11:47:43.417Z,66.69
2016-10-26T11:48:55.738Z,66.99
2016-10-26T11:50:09.370Z,66.79
2016-10-26T11:51:21.919Z,67.18
2016-10-26T11:52:35.020Z,66.4
2016-10-26T11:53:48.293Z,67.08
2016-10-26T11:55:01.248Z,66.79
2016-10-26T11:56:14.918Z,66.69
2016-10-26T11:57:28.963Z,66.3
2016-10-26T11:58:40.926Z,66.69
2016-10-26T11:59:53.969Z,66.5
2016-10-26T12:01:06.983Z,66.05
2016-10-26T12:02:19.413Z,66.34
2016-10-26T12:03:32.002Z,65.37
2016-10-26T12:04:43.934Z,65.37
2016-10-26T12:05:56.917Z,65.08
2016-10-26T12:07:09.442Z,65.66
2016-10-26T12:08:20.956Z,65.47
2016-10-26T12:09:32.491Z,64.88
2016-10-26T12:10:45.564Z,64.04
2016-10-26T12:11:59.206Z,63.85
2016-10-26T12:13:10.728Z,64.23
2016-10-26T12:14:23.414Z,63.29
2016-10-26T12:15:35.985Z,63.29
2016-10-26T12:16:49.044Z,63.49
2016-10-26T12:18:01.531Z,63.01
2016-10-26T12:19:13.530Z,62.32
2016-10-26T12:20:27.716Z,62.42
2016-10-26T12:21:40.323Z,62.26
2016-10-26T12:22:53.372Z,61.97
2016-10-26T12:24:05.890Z,61
2016-10-26T12:25:18.539Z,61.09
2016-10-26T12:26:31.611Z,61
2016-10-26T12:27:43.773Z,60.51
2016-10-26T12:28:56.544Z,60.54
2016-10-26T12:30:10.539Z,60.74
2016-10-26T12:31:23.045Z,60.61
2016-10-26T12:32:36.075Z,60.71
2016-10-26T12:33:48.137Z,60.31
2016-10-26T12:35:00.753Z,60.51
2016-10-26T12:36:13.857Z,60.8
2016-10-26T12:37:26.899Z,61.16
2016-10-26T12:38:40.000Z,60.9
2016-10-26T12:39:52.474Z,61
2016-10-26T12:41:04.421Z,60.41
2016-10-26T12:42:17.651Z,60.44
2016-10-26T12:43:29.570Z,59.38
2016-10-26T12:44:42.575Z,58.92
2016-10-26T12:45:55.074Z,58.33
2016-10-26T12:47:09.700Z,57.49
2016-10-26T12:48:23.402Z,57.49
2016-10-26T12:49:35.279Z,56.84
2016-10-26T12:50:47.592Z,56.35
2016-10-26T12:52:06.093Z,56.54
2016-10-26T12:53:20.810Z,55.76
2016-10-26T12:54:33.900Z,55.89
2016-10-26T12:55:45.860Z,55.57
2016-10-26T12:56:58.378Z,56.54
2016-10-26T12:58:11.168Z,56.45
2016-10-26T12:59:24.256Z,56.93
2016-10-26T13:00:37.322Z,56.9
2016-10-26T13:01:51.039Z,56.9
2016-10-26T13:03:03.858Z,56.71
2016-10-26T13:04:17.438Z,56.51
2016-10-26T13:05:33.109Z,55.76
2016-10-26T13:06:47.104Z,55.66
2016-10-26T13:07:59.627Z,55.86
2016-10-26T13:09:13.354Z,56.41
2016-10-26T13:10:26.833Z,55.47
2016-10-26T13:11:42.756Z,55.86
2016-10-26T13:12:54.804Z,55.57
2016-10-26T13:14:08.721Z,54.69
2016-10-26T13:15:22.916Z,54.79
2016-10-26T13:16:36.487Z,54.4
2016-10-26T13:17:48.671Z,54.5
2016-10-26T13:19:01.320Z,53.91
2016-10-26T13:20:15.020Z,53.65
2016-10-26T13:21:29.294Z,53.28
2016-10-26T13:22:42.471Z,52.6
2016-10-26T13:23:55.648Z,53.28
2016-10-26T13:25:07.970Z,52.89
2016-10-26T13:26:20.973Z,52.8
2016-10-26T13:27:34.128Z,52.8
2016-10-26T13:28:45.955Z,52.4
2016-10-26T13:29:57.526Z,52.04
2016-10-26T13:31:09.995Z,51.92
2016-10-26T13:32:22.498Z,51.85
2016-10-26T13:33:36.286Z,51.63
2016-10-26T13:34:51.466Z,51.56
2016-10-26T13:36:04.413Z,51.17
2016-10-26T13:37:16.623Z,50.78
2016-10-26T13:38:29.729Z,50.41
2016-10-26T13:39:42.187Z,50.58
2016-10-26T13:40:57.095Z,50.58
2016-10-26T13:42:09.680Z,50.58
2016-10-26T13:43:22.693Z,50.68
2016-10-26T13:44:34.196Z,50.68
2016-10-26T13:45:45.704Z,50.29
2016-10-26T13:46:57.946Z,49.83
2016-10-26T13:48:11.036Z,49.27
2016-10-26T13:49:23.527Z,48.39
2016-10-26T13:50:36.021Z,47.24
2016-10-26T13:51:48.643Z,46.75
2016-10-26T13:53:01.183Z,46.78
2016-10-26T13:54:14.424Z,47.24
2016-10-26T13:55:28.233Z,47.44
2016-10-26T13:56:42.079Z,46.68
2016-10-26T13:57:54.625Z,46.01
2016-10-26T13:59:07.834Z,45.55
2016-10-26T14:00:21.615Z,45.36
2016-10-26T14:01:34.732Z,44.3
2016-10-26T14:02:47.905Z,43.05
2016-10-26T14:04:00.898Z,42.07
2016-10-26T14:05:12.835Z,42.56
2016-10-26T14:06:25.872Z,42.85
2016-10-26T14:07:37.341Z,42.27
2016-10-26T14:08:51.044Z,41.97
2016-10-26T14:10:04.528Z,41.39
2016-10-26T14:11:18.224Z,40.92
2016-10-26T14:12:31.301Z,40.53
2016-10-26T14:13:44.995Z,40.35
2016-10-26T14:14:58.930Z,39.37
2016-10-26T14:16:11.961Z,39.78
2016-10-26T14:17:24.548Z,39.19
2016-10-26T14:18:37.552Z,39.19
2016-10-26T14:19:50.580Z,39.11
2016-10-26T14:21:03.842Z,38.33
2016-10-26T14:22:17.833Z,38.06
2016-10-26T14:23:29.941Z,37.76
2016-10-26T14:24:42.679Z,37.09
2016-10-26T14:25:55.829Z,36.7
2016-10-26T14:27:08.839Z,36.21
2016-10-26T14:28:21.898Z,36.22
2016-10-26T14:29:35.522Z,35.44
2016-10-26T14:30:49.162Z,35.24
2016-10-26T14:32:02.909Z,34.38
2016-10-26T14:33:14.984Z,34.77
2016-10-26T14:34:28.081Z,35.64
2016-10-26T14:35:41.795Z,35.23
2016-10-26T14:36:56.463Z,33.98
2016-10-26T14:38:09.573Z,32.23
2016-10-26T14:39:22.740Z,31.56
2016-10-26T14:40:35.760Z,30.6
2016-10-26T14:41:49.074Z,30.71
2016-10-26T14:43:02.023Z,30.8
2016-10-26T14:44:13.971Z,31.29
2016-10-26T14:45:27.330Z,31
2016-10-26T14:46:39.377Z,29.83
2016-10-26T14:47:51.926Z,29.25
2016-10-26T14:49:04.976Z,28.19
2016-10-26T14:50:18.579Z,29.07
2016-10-26T14:51:32.367Z,29.17
2016-10-26T14:52:45.104Z,28.48
2016-10-26T14:53:58.663Z,27.42
2016-10-26T14:55:12.620Z,26.96
2016-10-26T14:56:25.704Z,25.7
2016-10-26T14:57:39.309Z,25.52
2016-10-26T14:58:52.871Z,24.07
2016-10-26T15:00:05.038Z,24.66
2016-10-26T15:01:17.220Z,25.73
2016-10-26T15:02:29.627Z,26.1
2016-10-26T15:03:42.703Z,26.87
2016-10-26T15:04:56.328Z,26.76
2016-10-26T15:06:09.400Z,26.76
2016-10-26T15:07:21.938Z,27.75
2016-10-26T15:08:34.590Z,27.35
2016-10-26T15:09:48.249Z,26.96
2016-10-26T15:11:01.837Z,26.57
2016-10-26T15:12:15.558Z,25.9
2016-10-26T15:13:28.050Z,25.81
2016-10-26T15:14:41.708Z,25.04
2016-10-26T15:15:54.177Z,24.85
2016-10-26T15:17:06.647Z,24.66
2016-10-26T15:18:19.642Z,24.35
2016-10-26T15:19:32.279Z,25.14
2016-10-26T15:20:45.288Z,26.13
2016-10-26T15:21:57.755Z,25.82
2016-10-26T15:23:10.244Z,26.1
2016-10-26T15:24:23.255Z,26.39
2016-10-26T15:25:35.389Z,26.29
2016-10-26T15:26:47.923Z,26.59
2016-10-26T15:28:01.004Z,26.77
2016-10-26T15:29:14.061Z,26.77
2016-10-26T15:30:26.116Z,27.17
2016-10-26T15:31:39.134Z,26.48
2016-10-26T15:32:52.169Z,26.18
2016-10-26T15:34:04.703Z,25.7
2016-10-26T15:35:18.408Z,25.21
2016-10-26T15:36:30.418Z,23.85
2016-10-26T15:37:44.018Z,24.76
2016-10-26T15:38:56.510Z,25.04
2016-10-26T15:40:09.059Z,26.02
2016-10-26T15:41:22.207Z,25.52
2016-10-26T15:42:35.323Z,25.21